Terminal Aerodrome Forecast
Issued by NWS

Home | Current Version | Previous Version | Text Only | Print | Product List | Glossary On
Versions: 1 2 3 4 5 6 7 8 9 10 11 12 13
000
FTUS44 KLZK 281700
TAFHOT
TAF
KHOT 281738Z 2818/2918 18010KT P6SM SCT250
     FM290000 17005KT P6SM SCT250 WS020/20035KT
     FM290900 18005KT P6SM OVC012 WS020/22045KT
     FM291600 22012G22KT P6SM BKN020 WS020/21040KT=

USA.gov is the U.S. government's official web portal to all federal, state and local government web resources and services.